Ciudad de Panamá, Panamá

9:30 PM EST en Julio 06, 2015 (GMT -0500)
Marcos A Gelabert International | | Change Station
CLOSE
Current Station
Aeropuerto
Location: Panama,
Altura: 43 ft
Estaciones meteorológicas cercanas

Alt 43 ft 8.98 °N, 79.52 °W | Updated 30 minutes ago

Scattered Clouds
Nubes dispersas
79 ° F
Sensación térmica 79 ° F
N
2
Viento Variable Viento desde Variable

Hoy
Alta -- | Baja -- ° F
--% Posibilidad de precipitaciones
Ayer
Alta -- | Baja -- ° F
Precip. -- pul
6:04 AM 6:41 PM
Gibosa menguante, 70% visible
Presión 29.86 pul
Visibilidad 6.2 Millas
Nubes Baja 1800 ft
Nubes dispersas 9000 ft
Punto de rocío 77 ° F
Humedad 94%
Precipitaciones 0.00 pul
Espesor de la nieve No disponible.
UV 0 de una escala de 12
Polen No disponible.
Calidad del aire No disponible.
Flu Activity No disponible.
METAR MPMG 070200Z VRB02KT 9999 FEW018 SCT090 26/25 Q1011 NOSIG

More Conditions Fewer Conditions

Presión 29.86 pul
Visibilidad 6.2 Millas
Nubes Baja 1800 ft
Nubes dispersas 9000 ft
Punto de rocío 77 ° F
Humedad 94%
Precipitaciones 0.00 pul
Espesor de la nieve No disponible.
UV 0 de una escala de 12
Polen No disponible.
Calidad del aire No disponible.
Flu Activity No disponible.
METAR MPMG 070200Z VRB02KT 9999 FEW018 SCT090 26/25 Q1011 NOSIG

More Conditions Fewer Conditions

10-Day Weather Forecast

×

Almanac

Astronomía

Jul. 06, 2015 Salida Puesta
Hora real
Crepúsculo civil
Crepúsculo náutico
Crepúsculo astronómico
Luna
Horas de luz
Horas de luz
Tomorrow will be .
, % of the Moon is Illuminated

Extremos de hoy

Máximos del país Bajas del país

Community

WunderPhotos

Upload Photos

1,835,692 ¡fotos cargadas!

WunderBlogs® & News

Nearby

Calidad del aire

  Calidad del aire Índice AQ Contaminante
Not available.

Grosos de nieve

Estación Profundido Altura

Actividad de terremotos

Ciudad Distance Mag. Tiempo y dato
Magnitud mínima muestra es 2,5.

Temperaturas de aguas costeras

Lugar Temperatura

Stations

Estaciones meteorológicas cercanas

Ubicación de la estación Temp. Vientos helados Punto de rocío Humedad Viento Precip. Alt Actualizado Tipo